createdAt,value
2018-02-13T00:00:36.911Z,5.23
2018-02-13T00:01:36.694Z,5.23
2018-02-13T00:02:36.654Z,5.2
2018-02-13T00:03:36.381Z,5.18
2018-02-13T00:04:36.955Z,5.26
2018-02-13T00:05:36.968Z,5.23
2018-02-13T00:06:36.459Z,5.2
2018-02-13T00:07:36.992Z,5.18
2018-02-13T00:08:36.712Z,5.21
2018-02-13T00:09:36.733Z,5.23
2018-02-13T00:10:37.014Z,5.23
2018-02-13T00:11:37.226Z,5.21
2018-02-13T00:12:36.754Z,5.21
2018-02-13T00:13:36.763Z,5.18
2018-02-13T00:14:36.775Z,5.15
2018-02-13T00:15:36.504Z,5.14
2018-02-13T00:16:36.853Z,5.18
2018-02-13T00:17:37.085Z,5.17
2018-02-13T00:18:37.100Z,5.14
2018-02-13T00:19:36.826Z,5.14
2018-02-13T00:20:36.554Z,5.12
2018-02-13T00:21:36.563Z,5.15
2018-02-13T00:22:36.576Z,5.15
2018-02-13T00:23:36.590Z,5.17
2018-02-13T00:24:36.593Z,5.15
2018-02-13T00:25:36.889Z,5.05
2018-02-13T00:26:37.178Z,5.08
2018-02-13T00:27:37.193Z,5.08
2018-02-13T00:28:37.200Z,5.14
2018-02-13T00:29:36.932Z,5.14
2018-02-13T00:30:37.228Z,5.07
2018-02-13T00:31:36.951Z,5.12
2018-02-13T00:32:36.956Z,5.1
2018-02-13T00:33:37.252Z,5.1
2018-02-13T00:34:36.977Z,5.11
2018-02-13T00:35:36.992Z,5.07
2018-02-13T00:36:37.003Z,5.05
2018-02-13T00:37:37.007Z,5.11
2018-02-13T00:38:36.738Z,5.07
2018-02-13T00:39:37.309Z,5.04
2018-02-13T00:40:37.336Z,5.07
2018-02-13T00:41:37.051Z,5.07
2018-02-13T00:42:37.390Z,5.04
2018-02-13T00:43:36.788Z,5.05
2018-02-13T00:44:37.364Z,5.05
2018-02-13T00:45:37.375Z,4.97
2018-02-13T00:46:37.389Z,5.04
2018-02-13T00:47:37.111Z,5
2018-02-13T00:48:37.403Z,4.97
2018-02-13T00:49:37.135Z,5.04
2018-02-13T00:50:37.418Z,4.99
2018-02-13T00:51:37.197Z,5
2018-02-13T00:52:37.439Z,4.97
2018-02-13T00:53:37.171Z,5
2018-02-13T00:54:36.909Z,5.05
2018-02-13T00:55:37.192Z,5.04
2018-02-13T00:56:37.199Z,4.96
2018-02-13T00:57:37.490Z,4.96
2018-02-13T00:58:37.505Z,5.07
2018-02-13T00:59:37.520Z,5.04
2018-02-13T01:00:36.957Z,4.97
2018-02-13T01:01:37.544Z,4.94
2018-02-13T01:02:37.324Z,5
2018-02-13T01:03:37.269Z,4.94
2018-02-13T01:04:37.565Z,4.93
2018-02-13T01:05:37.287Z,5.02
2018-02-13T01:06:37.583Z,5.04
2018-02-13T01:07:37.642Z,5
2018-02-13T01:08:37.321Z,4.99
2018-02-13T01:09:37.332Z,5.04
2018-02-13T01:10:37.058Z,5
2018-02-13T01:11:37.349Z,4.94
2018-02-13T01:12:37.510Z,4.96
2018-02-13T01:13:37.367Z,5
2018-02-13T01:14:37.380Z,4.99
2018-02-13T01:15:37.388Z,5.02
2018-02-13T01:16:37.679Z,4.99
2018-02-13T01:17:37.177Z,5.04
2018-02-13T01:18:37.417Z,5.04
2018-02-13T01:19:37.438Z,4.93
2018-02-13T01:20:37.441Z,4.94
2018-02-13T01:21:37.453Z,5.05
2018-02-13T01:22:37.793Z,4.94
2018-02-13T01:23:37.187Z,4.96
2018-02-13T01:24:37.197Z,5.04
2018-02-13T01:25:37.489Z,5
2018-02-13T01:26:37.505Z,5.1
2018-02-13T01:27:37.838Z,5.02
2018-02-13T01:28:37.797Z,5.07
2018-02-13T01:29:37.812Z,5.02
2018-02-13T01:30:37.867Z,5.07
2018-02-13T01:31:37.555Z,5.04
2018-02-13T01:32:37.839Z,5.04
2018-02-13T01:33:37.569Z,5.04
2018-02-13T01:34:37.585Z,5.1
2018-02-13T01:35:37.880Z,5.07
2018-02-13T01:36:37.596Z,5.1
2018-02-13T01:37:37.988Z,5.08
2018-02-13T01:38:37.914Z,5.07
2018-02-13T01:39:37.630Z,5.05
2018-02-13T01:40:37.637Z,5.08
2018-02-13T01:41:37.933Z,5.08
2018-02-13T01:42:37.757Z,5.1
2018-02-13T01:43:37.386Z,5.1
2018-02-13T01:44:37.959Z,5.1
2018-02-13T01:45:37.687Z,5.14
2018-02-13T01:46:37.698Z,5.04
2018-02-13T01:47:37.756Z,5.1
2018-02-13T01:48:38.005Z,5.08
2018-02-13T01:49:38.011Z,5.08
2018-02-13T01:50:38.019Z,5.14
2018-02-13T01:51:38.034Z,5.08
2018-02-13T01:52:37.859Z,5.12
2018-02-13T01:53:37.766Z,5.14
2018-02-13T01:54:37.777Z,5.11
2018-02-13T01:55:38.069Z,5.11
2018-02-13T01:56:37.802Z,5.07
2018-02-13T01:57:37.866Z,5.14
2018-02-13T01:58:37.824Z,5.1
2018-02-13T01:59:37.827Z,5.12
2018-02-13T02:00:37.836Z,5.11
2018-02-13T02:01:37.850Z,5.12
2018-02-13T02:02:37.857Z,5.11
2018-02-13T02:03:37.865Z,5.12
2018-02-13T02:04:38.162Z,5.11
2018-02-13T02:05:37.886Z,5.08
2018-02-13T02:06:38.174Z,5.12
2018-02-13T02:07:37.674Z,5.11
2018-02-13T02:08:37.635Z,5.04
2018-02-13T02:09:37.930Z,5.14
2018-02-13T02:10:38.223Z,5.14
2018-02-13T02:11:38.238Z,5.12
2018-02-13T02:12:37.725Z,5.14
2018-02-13T02:13:37.969Z,5.08
2018-02-13T02:14:37.708Z,5.07
2018-02-13T02:15:37.703Z,5.14
2018-02-13T02:16:38.000Z,5.1
2018-02-13T02:17:38.056Z,5.08
2018-02-13T02:18:37.734Z,5.08
2018-02-13T02:19:38.033Z,5.07
2018-02-13T02:20:37.759Z,5.14
2018-02-13T02:21:38.044Z,5.08
2018-02-13T02:22:38.054Z,5.11
2018-02-13T02:23:38.074Z,5.07
2018-02-13T02:24:38.074Z,5.05
2018-02-13T02:25:37.803Z,5.04
2018-02-13T02:26:38.094Z,5.12
2018-02-13T02:27:38.164Z,5.14
2018-02-13T02:28:37.834Z,5.11
2018-02-13T02:29:37.845Z,5.1
2018-02-13T02:30:37.864Z,5.14
2018-02-13T02:31:38.430Z,5.1
2018-02-13T02:32:38.208Z,5.08
2018-02-13T02:33:38.449Z,5.1
2018-02-13T02:34:38.572Z,5.04
2018-02-13T02:35:38.204Z,5.14
2018-02-13T02:36:38.490Z,5.14
2018-02-13T02:37:38.537Z,5.04
2018-02-13T02:38:38.214Z,5.14
2018-02-13T02:39:38.507Z,5.11
2018-02-13T02:40:38.515Z,5.1
2018-02-13T02:41:37.964Z,5.1
2018-02-13T02:42:37.975Z,5.11
2018-02-13T02:43:38.267Z,5.1
2018-02-13T02:44:38.290Z,5.14
2018-02-13T02:45:38.295Z,5.17
2018-02-13T02:46:38.307Z,5.14
2018-02-13T02:47:38.310Z,5.1
2018-02-13T02:48:38.596Z,5.12
2018-02-13T02:49:38.329Z,5.08
2018-02-13T02:50:38.616Z,5.1
2018-02-13T02:51:38.071Z,5.11
2018-02-13T02:52:38.633Z,5.08
2018-02-13T02:53:38.370Z,5.07
2018-02-13T02:54:38.399Z,5.08
2018-02-13T02:55:38.668Z,5.07
2018-02-13T02:56:38.417Z,5.08
2018-02-13T02:57:38.411Z,5.12
2018-02-13T02:58:38.427Z,5.07
2018-02-13T02:59:38.426Z,5.1
2018-02-13T03:00:38.433Z,5.08
2018-02-13T03:01:38.449Z,5.08
2018-02-13T03:02:38.454Z,5.05
2018-02-13T03:03:38.853Z,5.12
2018-02-13T03:04:38.761Z,5.11
2018-02-13T03:05:38.204Z,5.05
2018-02-13T03:06:38.781Z,5.08
2018-02-13T03:07:38.787Z,5.14
2018-02-13T03:08:38.517Z,5.08
2018-02-13T03:09:38.522Z,5.1
2018-02-13T03:10:38.539Z,5.04
2018-02-13T03:11:38.827Z,5.08
2018-02-13T03:12:38.273Z,5.05
2018-02-13T03:13:38.854Z,5.08
2018-02-13T03:14:38.577Z,5.04
2018-02-13T03:15:38.618Z,5.08
2018-02-13T03:16:38.592Z,5.05
2018-02-13T03:17:38.601Z,5.08
2018-02-13T03:18:38.623Z,4.99
2018-02-13T03:19:39.136Z,4.99
2018-02-13T03:20:38.350Z,5.08
2018-02-13T03:21:38.643Z,5
2018-02-13T03:22:38.372Z,5
2018-02-13T03:23:38.940Z,5.02
2018-02-13T03:24:38.954Z,4.97
2018-02-13T03:25:38.962Z,5
2018-02-13T03:26:38.974Z,5
2018-02-13T03:27:38.985Z,5.07
2018-02-13T03:28:38.995Z,5
2018-02-13T03:29:38.439Z,5.04
2018-02-13T03:30:38.738Z,5
2018-02-13T03:31:39.027Z,5.04
2018-02-13T03:32:39.029Z,5.05
2018-02-13T03:33:39.041Z,4.93
2018-02-13T03:34:38.769Z,5.02
2018-02-13T03:35:39.081Z,4.97
2018-02-13T03:36:38.509Z,5
2018-02-13T03:37:39.080Z,4.97
2018-02-13T03:38:38.527Z,5.02
2018-02-13T03:39:38.817Z,4.99
2018-02-13T03:40:39.114Z,4.92
2018-02-13T03:41:38.837Z,5.07
2018-02-13T03:42:39.128Z,4.99
2018-02-13T03:43:38.858Z,5.04
2018-02-13T03:44:39.427Z,5
2018-02-13T03:45:39.161Z,4.99
2018-02-13T03:46:38.888Z,4.99
2018-02-13T03:47:38.616Z,4.99
2018-02-13T03:48:38.632Z,4.99
2018-02-13T03:49:38.918Z,4.96
2018-02-13T03:50:38.925Z,5.02
2018-02-13T03:51:38.938Z,4.99
2018-02-13T03:52:39.229Z,5
2018-02-13T03:53:38.957Z,5.04
2018-02-13T03:54:38.686Z,5.04
2018-02-13T03:55:38.696Z,4.93
2018-02-13T03:56:38.705Z,4.96
2018-02-13T03:57:38.996Z,4.92
2018-02-13T03:58:39.344Z,5.04
2018-02-13T03:59:38.735Z,4.92
2018-02-13T04:00:39.306Z,4.99
2018-02-13T04:01:39.041Z,5.02
2018-02-13T04:02:39.048Z,4.92
2018-02-13T04:03:39.053Z,4.99
2018-02-13T04:04:39.346Z,4.97
2018-02-13T04:05:39.372Z,4.94
2018-02-13T04:06:39.092Z,4.99
2018-02-13T04:07:39.094Z,5.04
2018-02-13T04:08:39.204Z,5.02
2018-02-13T04:09:38.833Z,4.93
2018-02-13T04:10:39.124Z,5
2018-02-13T04:11:39.414Z,5.02
2018-02-13T04:12:39.426Z,5.07
2018-02-13T04:13:39.161Z,5
2018-02-13T04:14:39.446Z,4.9
2018-02-13T04:15:39.464Z,5.05
2018-02-13T04:16:39.465Z,4.96
2018-02-13T04:17:38.913Z,5.08
2018-02-13T04:18:39.202Z,4.89
2018-02-13T04:19:39.497Z,4.94
2018-02-13T04:20:39.509Z,4.87
2018-02-13T04:21:39.241Z,4.92
2018-02-13T04:22:39.525Z,4.97
2018-02-13T04:23:39.530Z,4.92
2018-02-13T04:24:39.543Z,4.86
2018-02-13T04:25:39.271Z,4.93
2018-02-13T04:26:39.283Z,4.99
2018-02-13T04:27:39.307Z,5
2018-02-13T04:28:39.583Z,4.9
2018-02-13T04:29:39.309Z,4.96
2018-02-13T04:30:39.329Z,4.93
2018-02-13T04:31:39.335Z,4.87
2018-02-13T04:32:39.061Z,4.96
2018-02-13T04:33:39.667Z,4.86
2018-02-13T04:34:39.361Z,5.02
2018-02-13T04:35:39.654Z,4.96
2018-02-13T04:36:39.389Z,4.89
2018-02-13T04:37:39.108Z,4.9
2018-02-13T04:38:39.118Z,4.93
2018-02-13T04:39:39.128Z,5.05
2018-02-13T04:40:39.427Z,4.93
2018-02-13T04:41:39.716Z,4.92
2018-02-13T04:42:39.444Z,4.9
2018-02-13T04:43:39.730Z,4.87
2018-02-13T04:44:39.459Z,5.02
2018-02-13T04:45:39.748Z,4.9
2018-02-13T04:46:39.478Z,5.05
2018-02-13T04:47:39.205Z,4.99
2018-02-13T04:48:39.782Z,5.05
2018-02-13T04:49:39.244Z,5.04
2018-02-13T04:50:39.516Z,4.93
2018-02-13T04:51:39.524Z,4.89
2018-02-13T04:52:39.547Z,4.87
2018-02-13T04:53:39.545Z,5.08
2018-02-13T04:54:39.987Z,5.04
2018-02-13T04:55:39.566Z,5
2018-02-13T04:56:39.582Z,5
2018-02-13T04:57:39.584Z,4.93
2018-02-13T04:58:39.592Z,5.02
2018-02-13T04:59:39.613Z,5
2018-02-13T05:00:39.942Z,5.08
2018-02-13T05:01:39.638Z,5.08
2018-02-13T05:02:39.633Z,4.93
2018-02-13T05:03:39.645Z,4.94
2018-02-13T05:04:39.423Z,5.08
2018-02-13T05:05:39.662Z,4.9
2018-02-13T05:06:39.963Z,4.89
2018-02-13T05:07:39.684Z,4.93
2018-02-13T05:08:39.971Z,4.93
2018-02-13T05:09:39.758Z,5.04
2018-02-13T05:10:39.992Z,4.93
2018-02-13T05:11:39.446Z,4.93
2018-02-13T05:12:39.460Z,4.9
2018-02-13T05:13:39.739Z,4.97
2018-02-13T05:14:40.086Z,5.02
2018-02-13T05:15:40.041Z,4.97
2018-02-13T05:16:39.771Z,4.96
2018-02-13T05:17:40.073Z,4.9
2018-02-13T05:18:39.793Z,4.99
2018-02-13T05:19:39.941Z,4.97
2018-02-13T05:20:39.530Z,4.94
2018-02-13T05:21:39.826Z,4.94
2018-02-13T05:22:39.843Z,4.94
2018-02-13T05:23:40.123Z,4.92
2018-02-13T05:24:40.129Z,4.89
2018-02-13T05:25:40.139Z,4.97
2018-02-13T05:26:39.875Z,4.84
2018-02-13T05:27:39.878Z,4.89
2018-02-13T05:28:40.169Z,4.87
2018-02-13T05:29:39.718Z,4.9
2018-02-13T05:30:39.907Z,4.89
2018-02-13T05:31:39.916Z,4.9
2018-02-13T05:32:39.928Z,4.93
2018-02-13T05:33:40.226Z,4.87
2018-02-13T05:34:39.950Z,4.9
2018-02-13T05:35:39.676Z,4.92
2018-02-13T05:36:40.247Z,4.9
2018-02-13T05:37:40.263Z,4.9
2018-02-13T05:38:39.984Z,4.84
2018-02-13T05:39:39.995Z,4.92
2018-02-13T05:40:40.292Z,4.82
2018-02-13T05:41:40.300Z,4.89
2018-02-13T05:42:40.041Z,4.82
2018-02-13T05:43:40.037Z,4.94
2018-02-13T05:44:40.475Z,4.87
2018-02-13T05:45:40.066Z,4.8
2018-02-13T05:46:40.344Z,4.94
2018-02-13T05:47:40.076Z,4.93
2018-02-13T05:48:40.096Z,4.9
2018-02-13T05:49:40.422Z,4.8
2018-02-13T05:50:40.101Z,4.82
2018-02-13T05:51:40.113Z,4.82
2018-02-13T05:52:40.123Z,4.84
2018-02-13T05:53:39.864Z,4.86
2018-02-13T05:54:40.475Z,4.89
2018-02-13T05:55:39.894Z,4.82
2018-02-13T05:56:40.163Z,4.77
2018-02-13T05:57:40.170Z,4.84
2018-02-13T05:58:40.184Z,4.82
2018-02-13T05:59:40.191Z,4.84
2018-02-13T06:00:40.608Z,4.82
2018-02-13T06:01:39.928Z,4.86
2018-02-13T06:02:40.509Z,4.86
2018-02-13T06:03:40.227Z,4.75
2018-02-13T06:04:40.244Z,4.82
2018-02-13T06:05:39.967Z,4.8
2018-02-13T06:06:40.264Z,4.63
2018-02-13T06:07:40.275Z,4.77
2018-02-13T06:08:40.280Z,4.68
2018-02-13T06:09:40.620Z,4.74
2018-02-13T06:10:40.303Z,4.8
2018-02-13T06:11:40.617Z,4.8
2018-02-13T06:12:40.609Z,4.74
2018-02-13T06:13:40.325Z,4.82
2018-02-13T06:14:40.341Z,4.78
2018-02-13T06:15:40.393Z,4.67
2018-02-13T06:16:40.634Z,4.7
2018-02-13T06:17:40.086Z,4.86
2018-02-13T06:18:40.373Z,4.73
2018-02-13T06:19:40.383Z,4.67
2018-02-13T06:20:40.442Z,4.78
2018-02-13T06:21:40.131Z,4.71
2018-02-13T06:22:40.132Z,4.75
2018-02-13T06:23:40.423Z,4.73
2018-02-13T06:24:40.437Z,4.7
2018-02-13T06:25:40.450Z,4.82
2018-02-13T06:26:40.450Z,4.71
2018-02-13T06:27:40.743Z,4.66
2018-02-13T06:28:40.471Z,4.75
2018-02-13T06:29:40.760Z,4.67
2018-02-13T06:30:40.877Z,4.77
2018-02-13T06:31:40.780Z,4.68
2018-02-13T06:32:40.790Z,4.68
2018-02-13T06:33:40.518Z,4.8
2018-02-13T06:34:40.535Z,4.71
2018-02-13T06:35:40.307Z,4.7
2018-02-13T06:36:40.849Z,4.7
2018-02-13T06:37:40.560Z,4.67
2018-02-13T06:38:40.570Z,4.7
2018-02-13T06:39:40.867Z,4.82
2018-02-13T06:40:40.696Z,4.77
2018-02-13T06:41:40.596Z,4.7
2018-02-13T06:42:40.605Z,4.82
2018-02-13T06:43:40.899Z,4.7
2018-02-13T06:44:40.628Z,4.68
2018-02-13T06:45:40.966Z,4.7
2018-02-13T06:46:40.649Z,4.73
2018-02-13T06:47:40.938Z,4.7
2018-02-13T06:48:40.665Z,4.68
2018-02-13T06:49:40.404Z,4.7
2018-02-13T06:50:41.020Z,4.73
2018-02-13T06:51:40.705Z,4.66
2018-02-13T06:52:40.994Z,4.67
2018-02-13T06:53:40.993Z,4.73
2018-02-13T06:54:40.721Z,4.74
2018-02-13T06:55:41.063Z,4.67
2018-02-13T06:56:40.744Z,4.78
2018-02-13T06:57:41.049Z,4.73
2018-02-13T06:58:40.481Z,4.74
2018-02-13T06:59:40.768Z,4.77
2018-02-13T07:00:41.113Z,4.8
2018-02-13T07:01:41.133Z,4.8
2018-02-13T07:02:40.798Z,4.78
2018-02-13T07:03:40.527Z,4.8
2018-02-13T07:04:40.543Z,4.78
2018-02-13T07:05:40.549Z,4.86
2018-02-13T07:06:41.123Z,4.86
2018-02-13T07:07:40.860Z,4.87
2018-02-13T07:08:40.859Z,4.84
2018-02-13T07:09:40.871Z,4.8
2018-02-13T07:10:41.314Z,4.77
2018-02-13T07:11:41.182Z,4.86
2018-02-13T07:12:40.896Z,4.78
2018-02-13T07:13:40.906Z,4.82
2018-02-13T07:14:41.201Z,4.87
2018-02-13T07:15:41.074Z,4.84
2018-02-13T07:16:41.041Z,4.84
2018-02-13T07:17:40.943Z,4.84
2018-02-13T07:18:41.241Z,4.78
2018-02-13T07:19:40.962Z,4.86
2018-02-13T07:20:40.746Z,4.82
2018-02-13T07:21:41.264Z,4.8
2018-02-13T07:22:41.278Z,4.78
2018-02-13T07:23:41.007Z,4.94
2018-02-13T07:24:41.293Z,4.89
2018-02-13T07:25:41.024Z,4.86
2018-02-13T07:26:41.031Z,4.8
2018-02-13T07:27:41.055Z,4.8
2018-02-13T07:28:41.339Z,4.86
2018-02-13T07:29:40.780Z,4.89
2018-02-13T07:30:41.122Z,4.86
2018-02-13T07:31:41.456Z,4.82
2018-02-13T07:32:41.378Z,4.9
2018-02-13T07:33:41.380Z,4.93
2018-02-13T07:34:41.107Z,4.93
2018-02-13T07:35:41.179Z,4.92
2018-02-13T07:36:41.126Z,4.93
2018-02-13T07:37:41.139Z,4.9
2018-02-13T07:38:41.429Z,4.87
2018-02-13T07:39:41.156Z,4.89
2018-02-13T07:40:41.221Z,4.87
2018-02-13T07:41:41.178Z,4.87
2018-02-13T07:42:41.519Z,4.94
2018-02-13T07:43:41.477Z,4.89
2018-02-13T07:44:41.203Z,4.87
2018-02-13T07:45:41.345Z,4.8
2018-02-13T07:46:41.505Z,4.87
2018-02-13T07:47:41.515Z,4.93
2018-02-13T07:48:40.973Z,4.97
2018-02-13T07:49:41.254Z,4.93
2018-02-13T07:50:41.564Z,4.89
2018-02-13T07:51:40.994Z,4.93
2018-02-13T07:52:41.282Z,4.9
2018-02-13T07:53:41.018Z,4.94
2018-02-13T07:54:41.308Z,4.96
2018-02-13T07:55:41.643Z,4.96
2018-02-13T07:56:41.608Z,4.97
2018-02-13T07:57:41.329Z,5.04
2018-02-13T07:58:41.057Z,5
2018-02-13T07:59:41.349Z,5.02
2018-02-13T08:00:41.646Z,5.02
2018-02-13T08:01:41.090Z,4.97
2018-02-13T08:02:41.377Z,5.07
2018-02-13T08:03:41.114Z,5.02
2018-02-13T08:04:41.682Z,5.07
2018-02-13T08:05:41.740Z,5.05
2018-02-13T08:06:41.702Z,5.04
2018-02-13T08:07:41.766Z,5.07
2018-02-13T08:08:41.723Z,5.11
2018-02-13T08:09:41.165Z,5.11
2018-02-13T08:10:41.236Z,5.14
2018-02-13T08:11:41.752Z,5.11
2018-02-13T08:12:41.193Z,5.15
2018-02-13T08:13:41.486Z,5.18
2018-02-13T08:14:41.779Z,5.18
2018-02-13T08:15:41.837Z,5.23
2018-02-13T08:16:41.232Z,5.25
2018-02-13T08:17:41.806Z,5.25
2018-02-13T08:18:41.822Z,5.2
2018-02-13T08:19:41.827Z,5.25
2018-02-13T08:20:41.711Z,5.21
2018-02-13T08:21:41.285Z,5.18
2018-02-13T08:22:41.860Z,5.23
2018-02-13T08:23:41.301Z,5.29
2018-02-13T08:24:41.605Z,5.2
2018-02-13T08:25:41.898Z,5.21
2018-02-13T08:26:41.332Z,5.33
2018-02-13T08:27:41.624Z,5.36
2018-02-13T08:28:41.913Z,5.32
2018-02-13T08:29:41.980Z,5.29
2018-02-13T08:30:41.941Z,5.3
2018-02-13T08:31:41.380Z,5.33
2018-02-13T08:32:41.673Z,5.29
2018-02-13T08:33:41.681Z,5.47
2018-02-13T08:34:41.705Z,5.41
2018-02-13T08:35:41.754Z,5.47
2018-02-13T08:36:41.993Z,5.35
2018-02-13T08:40:18.275Z,5.47
2018-02-13T08:40:58.845Z,5.5
2018-02-13T08:41:58.522Z,5.57
2018-02-13T08:42:58.812Z,5.5
2018-02-13T08:43:58.821Z,5.54
2018-02-13T08:44:58.875Z,5.51
2018-02-13T08:45:59.184Z,5.57
2018-02-13T08:46:59.133Z,5.61
2018-02-13T08:48:18.065Z,5.69
2018-02-13T08:48:59.153Z,5.62
2018-02-13T08:49:59.166Z,5.66
2018-02-13T08:50:59.224Z,5.72
2018-02-13T08:51:58.904Z,5.75
2018-02-13T08:52:58.920Z,5.75
2018-02-13T08:53:58.931Z,5.76
2018-02-13T08:54:58.935Z,5.79
2018-02-13T08:55:59.043Z,5.89
2018-02-13T08:56:59.236Z,5.84
2018-02-13T08:57:59.254Z,5.84
2018-02-13T08:58:58.973Z,5.93
2018-02-13T08:59:59.265Z,5.9
2018-02-13T09:00:58.759Z,5.91
2018-02-13T09:01:59.000Z,5.94
2018-02-13T09:02:59.020Z,5.93
2018-02-13T09:03:59.025Z,6.02
2018-02-13T09:04:58.755Z,5.99
2018-02-13T09:05:59.051Z,5.99
2018-02-13T09:06:59.053Z,6.05
2018-02-13T09:07:58.779Z,6.02
2018-02-13T09:08:59.080Z,6.08
2018-02-13T09:09:59.085Z,6.11
2018-02-13T09:10:59.143Z,6.14
2018-02-13T09:11:58.819Z,6.17
2018-02-13T09:12:59.111Z,6.2
2018-02-13T09:13:59.405Z,6.16
2018-02-13T09:14:59.413Z,6.28
2018-02-13T09:15:59.143Z,6.26
2018-02-13T09:16:59.152Z,6.22
2018-02-13T09:17:58.881Z,6.31
2018-02-13T09:18:58.907Z,6.27
2018-02-13T09:19:59.185Z,6.33
2018-02-13T09:20:59.241Z,6.33
2018-02-13T09:21:59.203Z,6.45
2018-02-13T09:22:59.212Z,6.44
2018-02-13T09:23:59.225Z,6.46
2018-02-13T09:24:59.526Z,6.52
2018-02-13T09:25:59.294Z,6.57
2018-02-13T09:26:59.258Z,6.57
2018-02-13T09:27:59.546Z,6.6
2018-02-13T09:28:59.276Z,6.49
2018-02-13T09:29:59.287Z,6.57
2018-02-13T09:30:59.587Z,6.62
2018-02-13T09:31:59.594Z,6.7
2018-02-13T09:32:59.037Z,6.62
2018-02-13T09:33:59.334Z,6.64
2018-02-13T09:34:59.055Z,6.67
2018-02-13T09:35:59.497Z,6.66
2018-02-13T09:36:59.090Z,6.66
2018-02-13T09:37:59.372Z,6.79
2018-02-13T09:38:59.100Z,6.7
2018-02-13T09:39:59.390Z,6.81
2018-02-13T09:40:59.747Z,6.78
2018-02-13T09:41:59.412Z,6.87
2018-02-13T09:42:59.420Z,6.84
2018-02-13T09:43:59.151Z,6.82
2018-02-13T09:44:59.161Z,6.93
2018-02-13T09:45:59.786Z,6.87
2018-02-13T09:46:59.183Z,6.89
2018-02-13T09:47:59.196Z,6.92
2018-02-13T09:48:59.765Z,6.87
2018-02-13T09:49:59.779Z,6.92
2018-02-13T09:50:59.935Z,6.93
2018-02-13T09:51:59.233Z,7.05
2018-02-13T09:52:59.531Z,7.11
2018-02-13T09:53:59.256Z,7.03
2018-02-13T09:54:59.546Z,7.06
2018-02-13T09:55:59.710Z,7.11
2018-02-13T09:56:59.287Z,7.18
2018-02-13T09:57:59.299Z,7.18
2018-02-13T09:58:59.587Z,7.15
2018-02-13T09:59:59.882Z,7.21
2018-02-13T10:00:59.379Z,7.18
2018-02-13T10:01:59.622Z,7.24
2018-02-13T10:02:59.914Z,7.2
2018-02-13T10:03:59.926Z,7.33
2018-02-13T10:04:59.935Z,7.28
2018-02-13T10:05:59.813Z,7.29
2018-02-13T10:06:59.449Z,7.28
2018-02-13T10:07:59.695Z,7.38
2018-02-13T10:08:59.696Z,7.38
2018-02-13T10:09:59.706Z,7.47
2018-02-13T10:11:00.063Z,7.43
2018-02-13T10:12:00.017Z,7.48
2018-02-13T10:13:00.020Z,7.54
2018-02-13T10:14:00.031Z,7.56
2018-02-13T10:14:59.480Z,7.51
2018-02-13T10:15:59.771Z,7.51
2018-02-13T10:17:00.070Z,7.48
2018-02-13T10:17:59.511Z,7.51
2018-02-13T10:18:59.806Z,7.61
2018-02-13T10:19:59.831Z,7.47
2018-02-13T10:20:59.826Z,7.58
2018-02-13T10:21:59.837Z,7.66
2018-02-13T10:23:00.131Z,7.6
2018-02-13T10:23:59.856Z,7.7
2018-02-13T10:24:59.872Z,7.58
2018-02-13T10:26:00.170Z,7.67
2018-02-13T10:26:59.898Z,7.72
2018-02-13T10:27:59.624Z,7.69
2018-02-13T10:28:59.914Z,7.61
2018-02-13T10:30:00.204Z,7.6
2018-02-13T10:30:59.655Z,7.63
2018-02-13T10:32:00.331Z,7.73
2018-02-13T10:32:59.956Z,7.73
2018-02-13T10:33:59.967Z,7.72
2018-02-13T10:34:59.984Z,7.77
2018-02-13T10:35:59.990Z,7.77
2018-02-13T10:37:00.287Z,7.83
2018-02-13T10:37:59.731Z,7.88
2018-02-13T10:39:00.027Z,7.88
2018-02-13T10:40:00.321Z,8.03
2018-02-13T10:41:00.046Z,7.91
2018-02-13T10:42:00.063Z,7.91
2018-02-13T10:43:00.069Z,7.9
2018-02-13T10:44:00.080Z,7.95
2018-02-13T10:45:00.387Z,7.91
2018-02-13T10:46:00.123Z,7.91
2018-02-13T10:47:00.393Z,8.05
2018-02-13T10:47:59.847Z,7.93
2018-02-13T10:49:00.136Z,8.06
2018-02-13T10:50:00.160Z,7.98
2018-02-13T10:51:00.440Z,8.12
2018-02-13T10:51:59.887Z,8.09
2018-02-13T10:53:00.184Z,8.05
2018-02-13T10:54:00.204Z,8.06
2018-02-13T10:55:00.487Z,8.03
2018-02-13T10:56:00.218Z,8.13
2018-02-13T10:57:00.225Z,8.12
2018-02-13T10:57:59.974Z,8.13
2018-02-13T10:58:59.969Z,8.18
2018-02-13T11:00:00.261Z,8.18
2018-02-13T11:01:00.555Z,8.15
2018-02-13T11:02:00.284Z,8.26
2018-02-13T11:03:00.583Z,8.2
2018-02-13T11:04:00.589Z,8.2
2018-02-13T11:05:00.604Z,8.23
2018-02-13T11:06:00.612Z,8.33
2018-02-13T11:07:00.635Z,8.31
2018-02-13T11:08:00.360Z,8.36
2018-02-13T11:09:00.366Z,8.48
2018-02-13T11:10:00.101Z,8.48
2018-02-13T11:11:00.388Z,8.48
2018-02-13T11:12:00.397Z,8.48
2018-02-13T11:13:00.411Z,8.48
2018-02-13T11:14:00.708Z,8.51
2018-02-13T11:15:00.432Z,8.6
2018-02-13T11:16:00.165Z,8.66
2018-02-13T11:17:00.741Z,8.64
2018-02-13T11:18:00.753Z,8.67
2018-02-13T11:19:00.536Z,8.74
2018-02-13T11:20:00.494Z,8.71
2018-02-13T11:21:00.506Z,8.78
2018-02-13T11:22:00.566Z,8.76
2018-02-13T11:23:00.527Z,8.73
2018-02-13T11:24:00.549Z,8.78
2018-02-13T11:25:00.270Z,8.81
2018-02-13T11:26:00.279Z,8.81
2018-02-13T11:27:00.904Z,8.79
2018-02-13T11:28:00.310Z,8.79
2018-02-13T11:29:00.319Z,8.81
2018-02-13T11:30:00.327Z,8.91
2018-02-13T11:31:00.900Z,8.89
2018-02-13T11:32:00.635Z,8.95
2018-02-13T11:33:00.929Z,8.92
2018-02-13T11:34:00.374Z,8.99
2018-02-13T11:35:00.389Z,9.02
2018-02-13T11:36:00.680Z,9.03
2018-02-13T11:37:00.689Z,8.95
2018-02-13T11:38:00.988Z,9.03
2018-02-13T11:39:00.998Z,9
2018-02-13T11:40:01.010Z,9.1
2018-02-13T11:41:00.739Z,9.19
2018-02-13T11:42:01.038Z,9.13
2018-02-13T11:43:00.482Z,9.1
2018-02-13T11:44:00.781Z,9.08
2018-02-13T11:45:00.505Z,9.16
2018-02-13T11:46:00.527Z,9.18
2018-02-13T11:47:01.092Z,9.13
2018-02-13T11:48:00.565Z,9.16
2018-02-13T11:49:00.837Z,9.28
2018-02-13T11:50:00.850Z,9.29
2018-02-13T11:51:01.147Z,9.26
2018-02-13T11:52:01.159Z,9.29
2018-02-13T11:53:01.174Z,9.28
2018-02-13T11:54:00.900Z,9.19
2018-02-13T11:55:00.907Z,9.26
2018-02-13T11:56:00.695Z,9.26
2018-02-13T11:57:01.214Z,9.25
2018-02-13T11:58:00.661Z,9.21
2018-02-13T11:59:00.957Z,9.22
2018-02-13T12:00:00.690Z,9.32
2018-02-13T12:01:00.984Z,9.31
2018-02-13T12:02:00.713Z,9.26
2018-02-13T12:03:00.776Z,9.32
2018-02-13T12:04:01.301Z,9.29
2018-02-13T12:05:01.028Z,9.28
2018-02-13T12:06:01.342Z,9.31
2018-02-13T12:07:01.061Z,9.31
2018-02-13T12:08:01.071Z,9.4
2018-02-13T12:09:01.077Z,9.37
2018-02-13T12:10:01.377Z,9.36
2018-02-13T12:11:01.114Z,9.34
2018-02-13T12:12:01.121Z,9.36
2018-02-13T12:13:01.178Z,9.37
2018-02-13T12:14:01.433Z,9.5
2018-02-13T12:15:01.435Z,9.5
2018-02-13T12:16:01.165Z,9.51
2018-02-13T12:17:00.896Z,9.56
2018-02-13T12:18:01.532Z,9.56
2018-02-13T12:19:01.226Z,9.65
2018-02-13T12:20:00.933Z,9.65
2018-02-13T12:21:01.229Z,9.65
2018-02-13T12:22:01.249Z,9.74
2018-02-13T12:23:01.038Z,9.73
2018-02-13T12:24:01.279Z,9.74
2018-02-13T12:25:01.559Z,9.73
2018-02-13T12:26:01.294Z,9.73
2018-02-13T12:27:01.304Z,9.64
2018-02-13T12:28:01.375Z,9.66
2018-02-13T12:29:01.326Z,9.64
2018-02-13T12:30:01.625Z,9.66
2018-02-13T12:31:01.636Z,9.65
2018-02-13T12:32:01.095Z,9.73
2018-02-13T12:33:01.428Z,9.65
2018-02-13T12:34:01.392Z,9.66
2018-02-13T12:35:01.410Z,9.68
2018-02-13T12:36:01.699Z,9.66
2018-02-13T12:37:01.431Z,9.65
2018-02-13T12:38:01.493Z,9.72
2018-02-13T12:39:01.174Z,9.69
2018-02-13T12:40:01.752Z,9.72
2018-02-13T12:41:01.199Z,9.8
2018-02-13T12:42:01.774Z,9.77
2018-02-13T12:43:01.569Z,9.76
2018-02-13T12:44:01.803Z,9.65
2018-02-13T12:45:01.532Z,9.66
2018-02-13T12:46:01.825Z,9.66
2018-02-13T12:47:01.275Z,9.74
2018-02-13T12:48:01.904Z,9.69
2018-02-13T12:49:01.922Z,9.65
2018-02-13T12:50:01.325Z,9.66
2018-02-13T12:51:01.609Z,9.76
2018-02-13T12:52:01.909Z,9.66
2018-02-13T12:53:01.354Z,9.62
2018-02-13T12:54:01.367Z,9.72
2018-02-13T12:55:01.658Z,9.64
2018-02-13T12:56:01.957Z,9.72
2018-02-13T12:57:01.684Z,9.68
2018-02-13T12:58:01.468Z,9.66
2018-02-13T12:59:01.999Z,9.74
2018-02-13T13:00:01.734Z,9.73
2018-02-13T13:01:01.456Z,9.68
2018-02-13T13:02:01.468Z,9.62
2018-02-13T13:03:02.092Z,9.73
2018-02-13T13:04:01.501Z,9.66
2018-02-13T13:05:02.069Z,9.76
2018-02-13T13:06:01.804Z,9.65
2018-02-13T13:07:01.812Z,9.64
2018-02-13T13:08:01.976Z,9.76
2018-02-13T13:09:01.839Z,9.74
2018-02-13T13:10:02.136Z,9.77
2018-02-13T13:11:01.869Z,9.72
2018-02-13T13:12:02.187Z,9.84
2018-02-13T13:13:01.944Z,9.76
2018-02-13T13:14:01.904Z,9.76
2018-02-13T13:15:01.917Z,9.76
2018-02-13T13:16:01.934Z,9.68
2018-02-13T13:17:01.664Z,9.73
2018-02-13T13:18:02.238Z,9.79
2018-02-13T13:19:01.969Z,9.66
2018-02-13T13:20:01.984Z,9.76
2018-02-13T13:21:02.383Z,9.77
2018-02-13T13:22:02.291Z,9.74
2018-02-13T13:23:02.022Z,9.76
2018-02-13T13:24:02.031Z,9.79
2018-02-13T13:25:02.043Z,9.86
2018-02-13T13:26:02.079Z,9.84